sensor_id;sensor_type;location;lat;lon;timestamp;P1;durP1;ratioP1;P2;durP2;ratioP2
62256;SDS011;48240;52.962;5.790;2022-12-24T00:00:54;1.95;;;1.52;;
62256;SDS011;48240;52.962;5.790;2022-12-24T00:03:20;2.92;;;2.05;;
62256;SDS011;48240;52.962;5.790;2022-12-24T00:05:46;2.60;;;1.73;;
62256;SDS011;48240;52.962;5.790;2022-12-24T00:08:12;2.50;;;1.95;;
62256;SDS011;48240;52.962;5.790;2022-12-24T00:10:38;2.28;;;1.70;;
62256;SDS011;48240;52.962;5.790;2022-12-24T00:13:04;2.65;;;2.00;;
62256;SDS011;48240;52.962;5.790;2022-12-24T00:15:30;2.78;;;1.85;;
62256;SDS011;48240;52.962;5.790;2022-12-24T00:17:57;3.22;;;1.90;;
62256;SDS011;48240;52.962;5.790;2022-12-24T00:20:23;2.42;;;1.80;;
62256;SDS011;48240;52.962;5.790;2022-12-24T00:22:49;2.22;;;1.70;;
62256;SDS011;48240;52.962;5.790;2022-12-24T00:25:15;2.47;;;1.80;;
62256;SDS011;48240;52.962;5.790;2022-12-24T00:27:41;3.55;;;2.00;;
62256;SDS011;48240;52.962;5.790;2022-12-24T00:30:07;2.30;;;1.63;;
62256;SDS011;48240;52.962;5.790;2022-12-24T00:32:34;2.53;;;2.00;;
62256;SDS011;48240;52.962;5.790;2022-12-24T00:35:01;2.70;;;1.92;;
62256;SDS011;48240;52.962;5.790;2022-12-24T00:37:27;2.40;;;1.85;;
62256;SDS011;48240;52.962;5.790;2022-12-24T00:39:53;2.72;;;2.00;;
62256;SDS011;48240;52.962;5.790;2022-12-24T00:42:19;2.78;;;1.85;;
62256;SDS011;48240;52.962;5.790;2022-12-24T00:44:46;2.67;;;1.98;;
62256;SDS011;48240;52.962;5.790;2022-12-24T00:47:12;2.97;;;2.10;;
62256;SDS011;48240;52.962;5.790;2022-12-24T05:09:03;8.60;;;2.05;;
62256;SDS011;48240;52.962;5.790;2022-12-24T05:11:29;6.60;;;1.83;;
62256;SDS011;48240;52.962;5.790;2022-12-24T05:13:55;7.28;;;2.05;;
62256;SDS011;48240;52.962;5.790;2022-12-24T05:16:22;8.32;;;2.10;;
62256;SDS011;48240;52.962;5.790;2022-12-24T05:18:48;7.70;;;2.22;;
62256;SDS011;48240;52.962;5.790;2022-12-24T05:21:15;9.05;;;2.05;;
62256;SDS011;48240;52.962;5.790;2022-12-24T05:23:42;8.35;;;1.98;;
62256;SDS011;48240;52.962;5.790;2022-12-24T05:28:59;10.45;;;2.33;;
62256;SDS011;48240;52.962;5.790;2022-12-24T05:31:26;13.13;;;2.38;;
62256;SDS011;48240;52.962;5.790;2022-12-24T05:33:52;9.60;;;2.15;;
62256;SDS011;48240;52.962;5.790;2022-12-24T05:36:19;6.18;;;1.90;;
62256;SDS011;48240;52.962;5.790;2022-12-24T05:38:45;7.88;;;2.15;;
62256;SDS011;48240;52.962;5.790;2022-12-24T05:41:11;8.63;;;1.98;;
62256;SDS011;48240;52.962;5.790;2022-12-24T05:43:37;5.93;;;1.55;;
62256;SDS011;48240;52.962;5.790;2022-12-24T05:46:04;10.25;;;2.08;;
62256;SDS011;48240;52.962;5.790;2022-12-24T05:48:30;9.48;;;2.10;;
62256;SDS011;48240;52.962;5.790;2022-12-24T05:50:57;9.10;;;2.10;;
62256;SDS011;48240;52.962;5.790;2022-12-24T05:53:23;9.55;;;1.88;;
62256;SDS011;48240;52.962;5.790;2022-12-24T05:55:49;8.02;;;1.83;;
62256;SDS011;48240;52.962;5.790;2022-12-24T05:58:15;11.05;;;2.05;;
62256;SDS011;48240;52.962;5.790;2022-12-24T06:00:41;9.60;;;1.88;;
62256;SDS011;48240;52.962;5.790;2022-12-24T06:03:08;8.35;;;2.13;;
62256;SDS011;48240;52.962;5.790;2022-12-24T06:05:34;6.22;;;2.05;;
62256;SDS011;48240;52.962;5.790;2022-12-24T06:08:00;10.48;;;2.13;;
62256;SDS011;48240;52.962;5.790;2022-12-24T06:10:26;7.63;;;1.90;;
62256;SDS011;48240;52.962;5.790;2022-12-24T06:12:52;7.63;;;1.83;;
62256;SDS011;48240;52.962;5.790;2022-12-24T06:15:18;6.93;;;1.83;;
62256;SDS011;48240;52.962;5.790;2022-12-24T06:17:44;10.07;;;2.25;;
62256;SDS011;48240;52.962;5.790;2022-12-24T06:20:10;11.05;;;2.30;;
62256;SDS011;48240;52.962;5.790;2022-12-24T06:22:36;7.63;;;2.10;;
62256;SDS011;48240;52.962;5.790;2022-12-24T06:25:02;7.10;;;2.00;;
62256;SDS011;48240;52.962;5.790;2022-12-24T06:27:28;10.20;;;2.33;;
62256;SDS011;48240;52.962;5.790;2022-12-24T06:29:55;11.70;;;2.08;;
62256;SDS011;48240;52.962;5.790;2022-12-24T06:32:21;11.43;;;2.15;;
62256;SDS011;48240;52.962;5.790;2022-12-24T06:34:48;10.70;;;2.22;;
62256;SDS011;48240;52.962;5.790;2022-12-24T06:37:14;10.48;;;2.00;;
62256;SDS011;48240;52.962;5.790;2022-12-24T06:39:45;8.52;;;2.22;;
62256;SDS011;48240;52.962;5.790;2022-12-24T06:42:12;8.73;;;2.47;;
62256;SDS011;48240;52.962;5.790;2022-12-24T06:44:38;9.45;;;2.28;;
62256;SDS011;48240;52.962;5.790;2022-12-24T06:47:04;9.55;;;2.20;;
62256;SDS011;48240;52.962;5.790;2022-12-24T06:49:30;9.10;;;1.95;;
62256;SDS011;48240;52.962;5.790;2022-12-24T06:51:56;10.02;;;2.25;;
62256;SDS011;48240;52.962;5.790;2022-12-24T06:54:22;8.35;;;2.15;;
62256;SDS011;48240;52.962;5.790;2022-12-24T06:56:48;7.65;;;2.17;;
62256;SDS011;48240;52.962;5.790;2022-12-24T06:59:14;9.50;;;2.10;;
62256;SDS011;48240;52.962;5.790;2022-12-24T07:01:41;9.40;;;2.28;;
62256;SDS011;48240;52.962;5.790;2022-12-24T07:04:07;8.82;;;1.90;;
62256;SDS011;48240;52.962;5.790;2022-12-24T07:06:33;8.68;;;1.92;;
62256;SDS011;48240;52.962;5.790;2022-12-24T07:08:59;6.70;;;1.90;;
62256;SDS011;48240;52.962;5.790;2022-12-24T07:11:25;9.80;;;2.40;;
62256;SDS011;48240;52.962;5.790;2022-12-24T07:13:51;9.35;;;2.08;;
62256;SDS011;48240;52.962;5.790;2022-12-24T07:16:17;8.25;;;2.03;;
62256;SDS011;48240;52.962;5.790;2022-12-24T07:18:43;8.63;;;2.17;;
62256;SDS011;48240;52.962;5.790;2022-12-24T07:21:09;9.07;;;2.13;;
62256;SDS011;48240;52.962;5.790;2022-12-24T07:23:35;9.68;;;2.55;;
62256;SDS011;48240;52.962;5.790;2022-12-24T07:26:02;9.40;;;1.92;;
62256;SDS011;48240;52.962;5.790;2022-12-24T07:28:29;8.40;;;2.00;;
62256;SDS011;48240;52.962;5.790;2022-12-24T07:30:56;9.07;;;2.25;;
62256;SDS011;48240;52.962;5.790;2022-12-24T07:33:23;22.95;;;4.20;;
62256;SDS011;48240;52.962;5.790;2022-12-24T07:35:56;20.75;;;4.22;;
62256;SDS011;48240;52.962;5.790;2022-12-24T07:38:22;30.23;;;5.32;;
62256;SDS011;48240;52.962;5.790;2022-12-24T07:40:48;24.70;;;5.40;;
62256;SDS011;48240;52.962;5.790;2022-12-24T07:43:14;26.85;;;4.60;;
62256;SDS011;48240;52.962;5.790;2022-12-24T07:45:40;25.95;;;4.70;;
62256;SDS011;48240;52.962;5.790;2022-12-24T07:48:07;28.83;;;4.13;;
62256;SDS011;48240;52.962;5.790;2022-12-24T07:50:33;27.08;;;5.13;;
62256;SDS011;48240;52.962;5.790;2022-12-24T07:52:59;30.35;;;3.97;;
62256;SDS011;48240;52.962;5.790;2022-12-24T07:55:25;31.10;;;4.53;;
62256;SDS011;48240;52.962;5.790;2022-12-24T07:57:51;25.50;;;4.32;;
62256;SDS011;48240;52.962;5.790;2022-12-24T08:00:17;22.48;;;4.28;;
62256;SDS011;48240;52.962;5.790;2022-12-24T08:02:43;27.67;;;4.43;;
62256;SDS011;48240;52.962;5.790;2022-12-24T08:05:09;27.85;;;4.53;;
62256;SDS011;48240;52.962;5.790;2022-12-24T08:07:36;24.35;;;4.65;;
62256;SDS011;48240;52.962;5.790;2022-12-24T08:10:02;20.70;;;3.63;;
62256;SDS011;48240;52.962;5.790;2022-12-24T08:12:28;19.63;;;3.60;;
62256;SDS011;48240;52.962;5.790;2022-12-24T08:14:54;23.88;;;4.18;;
62256;SDS011;48240;52.962;5.790;2022-12-24T08:17:20;22.83;;;4.05;;
62256;SDS011;48240;52.962;5.790;2022-12-24T08:19:46;17.58;;;4.03;;
62256;SDS011;48240;52.962;5.790;2022-12-24T08:22:14;19.73;;;3.97;;
62256;SDS011;48240;52.962;5.790;2022-12-24T08:24:40;18.42;;;3.75;;
62256;SDS011;48240;52.962;5.790;2022-12-24T08:27:06;16.45;;;3.70;;
62256;SDS011;48240;52.962;5.790;2022-12-24T08:29:32;26.48;;;3.90;;
62256;SDS011;48240;52.962;5.790;2022-12-24T08:31:58;19.55;;;3.58;;
62256;SDS011;48240;52.962;5.790;2022-12-24T08:34:24;16.00;;;3.30;;
62256;SDS011;48240;52.962;5.790;2022-12-24T08:36:50;19.88;;;3.83;;
62256;SDS011;48240;52.962;5.790;2022-12-24T08:39:16;17.50;;;3.15;;
62256;SDS011;48240;52.962;5.790;2022-12-24T08:41:42;15.77;;;3.33;;
62256;SDS011;48240;52.962;5.790;2022-12-24T08:44:08;19.98;;;3.28;;
62256;SDS011;48240;52.962;5.790;2022-12-24T08:46:35;15.38;;;3.38;;
62256;SDS011;48240;52.962;5.790;2022-12-24T08:49:01;18.77;;;3.83;;
62256;SDS011;48240;52.962;5.790;2022-12-24T08:51:27;23.52;;;3.50;;
62256;SDS011;48240;52.962;5.790;2022-12-24T08:53:53;16.55;;;3.22;;
62256;SDS011;48240;52.962;5.790;2022-12-24T08:56:19;18.05;;;3.42;;
62256;SDS011;48240;52.962;5.790;2022-12-24T08:58:45;15.48;;;3.28;;
62256;SDS011;48240;52.962;5.790;2022-12-24T09:01:17;17.00;;;3.17;;
62256;SDS011;48240;52.962;5.790;2022-12-24T09:03:43;17.80;;;3.60;;
62256;SDS011;48240;52.962;5.790;2022-12-24T09:06:10;17.77;;;3.80;;
62256;SDS011;48240;52.962;5.790;2022-12-24T09:08:36;15.15;;;3.28;;
62256;SDS011;48240;52.962;5.790;2022-12-24T09:11:06;15.98;;;3.17;;
62256;SDS011;48240;52.962;5.790;2022-12-24T09:13:33;16.33;;;2.87;;
62256;SDS011;48240;52.962;5.790;2022-12-24T09:15:59;16.80;;;3.65;;
62256;SDS011;48240;52.962;5.790;2022-12-24T09:18:25;14.63;;;3.50;;
62256;SDS011;48240;52.962;5.790;2022-12-24T09:20:57;18.35;;;3.20;;
62256;SDS011;48240;52.962;5.790;2022-12-24T09:23:23;13.30;;;2.78;;
62256;SDS011;48240;52.962;5.790;2022-12-24T09:25:49;13.13;;;2.40;;
62256;SDS011;48240;52.962;5.790;2022-12-24T09:28:15;12.93;;;3.03;;
62256;SDS011;48240;52.962;5.790;2022-12-24T09:30:41;12.75;;;2.97;;
62256;SDS011;48240;52.962;5.790;2022-12-24T09:33:07;17.95;;;3.10;;
62256;SDS011;48240;52.962;5.790;2022-12-24T09:35:36;17.35;;;3.50;;
62256;SDS011;48240;52.962;5.790;2022-12-24T09:38:02;14.48;;;3.53;;
62256;SDS011;48240;52.962;5.790;2022-12-24T09:40:35;18.50;;;3.13;;
62256;SDS011;48240;52.962;5.790;2022-12-24T09:43:22;20.33;;;3.50;;
62256;SDS011;48240;52.962;5.790;2022-12-24T09:48:21;17.25;;;3.40;;
62256;SDS011;48240;52.962;5.790;2022-12-24T09:53:28;14.07;;;3.10;;
62256;SDS011;48240;52.962;5.790;2022-12-24T09:56:00;17.70;;;3.17;;
62256;SDS011;48240;52.962;5.790;2022-12-24T09:58:32;15.75;;;3.33;;
62256;SDS011;48240;52.962;5.790;2022-12-24T10:01:00;16.90;;;3.42;;
62256;SDS011;48240;52.962;5.790;2022-12-24T10:03:26;12.95;;;2.75;;
62256;SDS011;48240;52.962;5.790;2022-12-24T10:06:01;12.82;;;3.25;;
62256;SDS011;48240;52.962;5.790;2022-12-24T10:08:34;11.95;;;2.47;;
62256;SDS011;48240;52.962;5.790;2022-12-24T10:18:46;15.30;;;2.67;;
62256;SDS011;48240;52.962;5.790;2022-12-24T10:21:14;11.57;;;2.88;;
62256;SDS011;48240;52.962;5.790;2022-12-24T10:26:10;17.92;;;2.78;;
62256;SDS011;48240;52.962;5.790;2022-12-24T10:28:41;13.17;;;3.33;;
62256;SDS011;48240;52.962;5.790;2022-12-24T10:31:08;15.30;;;3.10;;
62256;SDS011;48240;52.962;5.790;2022-12-24T10:33:37;13.88;;;2.88;;
62256;SDS011;48240;52.962;5.790;2022-12-24T10:36:05;19.00;;;2.75;;
62256;SDS011;48240;52.962;5.790;2022-12-24T10:38:33;12.75;;;2.83;;
62256;SDS011;48240;52.962;5.790;2022-12-24T10:40:59;11.02;;;2.85;;
62256;SDS011;48240;52.962;5.790;2022-12-24T10:43:27;13.85;;;2.58;;
62256;SDS011;48240;52.962;5.790;2022-12-24T10:45:57;12.65;;;2.97;;
62256;SDS011;48240;52.962;5.790;2022-12-24T10:50:55;17.50;;;2.60;;
62256;SDS011;48240;52.962;5.790;2022-12-24T10:53:45;12.73;;;2.83;;
62256;SDS011;48240;52.962;5.790;2022-12-24T10:56:10;14.48;;;2.88;;
62256;SDS011;48240;52.962;5.790;2022-12-24T10:58:44;12.73;;;2.50;;
62256;SDS011;48240;52.962;5.790;2022-12-24T11:01:12;14.73;;;2.90;;
62256;SDS011;48240;52.962;5.790;2022-12-24T11:03:38;12.25;;;2.55;;
62256;SDS011;48240;52.962;5.790;2022-12-24T11:08:30;11.50;;;2.33;;
62256;SDS011;48240;52.962;5.790;2022-12-24T11:10:59;12.70;;;2.67;;
62256;SDS011;48240;52.962;5.790;2022-12-24T11:13:27;10.57;;;2.50;;
62256;SDS011;48240;52.962;5.790;2022-12-24T11:16:16;10.48;;;2.35;;
62256;SDS011;48240;52.962;5.790;2022-12-24T11:18:44;20.48;;;2.72;;
62256;SDS011;48240;52.962;5.790;2022-12-24T11:21:10;11.48;;;2.80;;
62256;SDS011;48240;52.962;5.790;2022-12-24T11:23:47;14.90;;;3.20;;
62256;SDS011;48240;52.962;5.790;2022-12-24T11:26:14;10.00;;;2.30;;
62256;SDS011;48240;52.962;5.790;2022-12-24T11:28:45;12.27;;;2.50;;
62256;SDS011;48240;52.962;5.790;2022-12-24T11:31:27;11.77;;;2.38;;
62256;SDS011;48240;52.962;5.790;2022-12-24T11:33:57;16.23;;;2.72;;
62256;SDS011;48240;52.962;5.790;2022-12-24T11:36:23;11.75;;;2.45;;
62256;SDS011;48240;52.962;5.790;2022-12-24T11:38:55;14.85;;;2.72;;
62256;SDS011;48240;52.962;5.790;2022-12-24T11:41:21;13.02;;;2.65;;
62256;SDS011;48240;52.962;5.790;2022-12-24T11:43:49;12.45;;;2.40;;
62256;SDS011;48240;52.962;5.790;2022-12-24T11:46:20;10.25;;;2.20;;
62256;SDS011;48240;52.962;5.790;2022-12-24T11:51:23;11.45;;;2.45;;
62256;SDS011;48240;52.962;5.790;2022-12-24T11:58:56;12.38;;;2.50;;
62256;SDS011;48240;52.962;5.790;2022-12-24T12:01:24;12.40;;;2.88;;
62256;SDS011;48240;52.962;5.790;2022-12-24T12:09:10;13.70;;;3.17;;
62256;SDS011;48240;52.962;5.790;2022-12-24T12:11:37;12.13;;;2.50;;
62256;SDS011;48240;52.962;5.790;2022-12-24T12:14:05;14.13;;;2.55;;
62256;SDS011;48240;52.962;5.790;2022-12-24T12:16:44;14.77;;;2.63;;
62256;SDS011;48240;52.962;5.790;2022-12-24T12:19:51;12.30;;;2.40;;
62256;SDS011;48240;52.962;5.790;2022-12-24T12:22:25;13.90;;;2.65;;
62256;SDS011;48240;52.962;5.790;2022-12-24T12:24:54;12.68;;;2.50;;
62256;SDS011;48240;52.962;5.790;2022-12-24T12:27:30;9.18;;;2.30;;
62256;SDS011;48240;52.962;5.790;2022-12-24T12:30:10;9.52;;;2.30;;
62256;SDS011;48240;52.962;5.790;2022-12-24T12:35:13;12.95;;;2.95;;
62256;SDS011;48240;52.962;5.790;2022-12-24T12:37:42;12.77;;;2.45;;
62256;SDS011;48240;52.962;5.790;2022-12-24T12:40:14;9.27;;;2.55;;
62256;SDS011;48240;52.962;5.790;2022-12-24T12:42:43;10.05;;;2.38;;
62256;SDS011;48240;52.962;5.790;2022-12-24T12:50:26;11.77;;;2.40;;
62256;SDS011;48240;52.962;5.790;2022-12-24T12:53:02;15.57;;;2.92;;
62256;SDS011;48240;52.962;5.790;2022-12-24T12:55:35;12.63;;;2.40;;
62256;SDS011;48240;52.962;5.790;2022-12-24T12:58:07;14.93;;;2.53;;
62256;SDS011;48240;52.962;5.790;2022-12-24T13:00:36;10.75;;;2.42;;
62256;SDS011;48240;52.962;5.790;2022-12-24T13:03:10;10.00;;;2.33;;
62256;SDS011;48240;52.962;5.790;2022-12-24T13:06:04;11.27;;;2.65;;
62256;SDS011;48240;52.962;5.790;2022-12-24T13:11:11;9.60;;;2.28;;
62256;SDS011;48240;52.962;5.790;2022-12-24T13:21:17;12.00;;;2.28;;
62256;SDS011;48240;52.962;5.790;2022-12-24T13:23:45;12.57;;;2.28;;
62256;SDS011;48240;52.962;5.790;2022-12-24T13:26:12;11.40;;;2.50;;
62256;SDS011;48240;52.962;5.790;2022-12-24T13:28:38;12.85;;;2.50;;
62256;SDS011;48240;52.962;5.790;2022-12-24T13:33:52;9.98;;;1.83;;
62256;SDS011;48240;52.962;5.790;2022-12-24T13:36:19;11.18;;;2.10;;
62256;SDS011;48240;52.962;5.790;2022-12-24T13:38:55;8.55;;;1.92;;
62256;SDS011;48240;52.962;5.790;2022-12-24T13:47:15;8.52;;;1.90;;
62256;SDS011;48240;52.962;5.790;2022-12-24T13:54:31;8.90;;;1.98;;
62256;SDS011;48240;52.962;5.790;2022-12-24T13:56:58;9.75;;;2.30;;
62256;SDS011;48240;52.962;5.790;2022-12-24T13:59:32;6.75;;;1.98;;
62256;SDS011;48240;52.962;5.790;2022-12-24T14:01:59;8.82;;;1.92;;
62256;SDS011;48240;52.962;5.790;2022-12-24T14:04:32;10.88;;;2.00;;
62256;SDS011;48240;52.962;5.790;2022-12-24T14:07:00;7.95;;;1.70;;
62256;SDS011;48240;52.962;5.790;2022-12-24T14:09:27;9.57;;;2.13;;
62256;SDS011;48240;52.962;5.790;2022-12-24T14:14:30;8.65;;;2.08;;
62256;SDS011;48240;52.962;5.790;2022-12-24T14:17:00;8.35;;;2.03;;
62256;SDS011;48240;52.962;5.790;2022-12-24T14:19:28;9.93;;;2.25;;
62256;SDS011;48240;52.962;5.790;2022-12-24T14:21:56;9.98;;;2.20;;
62256;SDS011;48240;52.962;5.790;2022-12-24T14:24:26;7.88;;;1.77;;
62256;SDS011;48240;52.962;5.790;2022-12-24T14:26:53;9.30;;;1.83;;
62256;SDS011;48240;52.962;5.790;2022-12-24T14:29:30;9.23;;;2.08;;
62256;SDS011;48240;52.962;5.790;2022-12-24T14:31:58;11.52;;;2.20;;
62256;SDS011;48240;52.962;5.790;2022-12-24T14:34:24;12.98;;;2.30;;
62256;SDS011;48240;52.962;5.790;2022-12-24T14:36:51;10.82;;;2.28;;
62256;SDS011;48240;52.962;5.790;2022-12-24T14:52:13;8.68;;;1.92;;
62256;SDS011;48240;52.962;5.790;2022-12-24T14:54:42;12.95;;;2.17;;
62256;SDS011;48240;52.962;5.790;2022-12-24T15:07:34;10.73;;;1.92;;
62256;SDS011;48240;52.962;5.790;2022-12-24T15:10:02;10.73;;;1.58;;
62256;SDS011;48240;52.962;5.790;2022-12-24T15:12:30;8.35;;;1.70;;
62256;SDS011;48240;52.962;5.790;2022-12-24T15:14:57;12.50;;;2.05;;
62256;SDS011;48240;52.962;5.790;2022-12-24T15:17:24;10.75;;;2.00;;
62256;SDS011;48240;52.962;5.790;2022-12-24T15:19:50;9.65;;;2.38;;
62256;SDS011;48240;52.962;5.790;2022-12-24T15:22:25;9.45;;;2.03;;
62256;SDS011;48240;52.962;5.790;2022-12-24T15:24:52;9.60;;;2.33;;
62256;SDS011;48240;52.962;5.790;2022-12-24T15:27:21;8.18;;;1.98;;
62256;SDS011;48240;52.962;5.790;2022-12-24T15:29:48;9.80;;;1.70;;
62256;SDS011;48240;52.962;5.790;2022-12-24T15:32:15;7.70;;;1.80;;
62256;SDS011;48240;52.962;5.790;2022-12-24T15:34:43;9.02;;;1.98;;
62256;SDS011;48240;52.962;5.790;2022-12-24T15:39:36;8.80;;;1.90;;
62256;SDS011;48240;52.962;5.790;2022-12-24T15:42:03;8.48;;;1.70;;
62256;SDS011;48240;52.962;5.790;2022-12-24T15:44:40;10.25;;;1.92;;
62256;SDS011;48240;52.962;5.790;2022-12-24T15:47:14;13.57;;;3.00;;
62256;SDS011;48240;52.962;5.790;2022-12-24T15:49:42;8.25;;;1.60;;
62256;SDS011;48240;52.962;5.790;2022-12-24T15:52:10;7.22;;;1.65;;
62256;SDS011;48240;52.962;5.790;2022-12-24T15:54:45;8.45;;;1.98;;
62256;SDS011;48240;52.962;5.790;2022-12-24T15:57:25;12.63;;;2.33;;
62256;SDS011;48240;52.962;5.790;2022-12-24T15:59:55;5.38;;;1.63;;
62256;SDS011;48240;52.962;5.790;2022-12-24T16:13:38;10.00;;;2.28;;
62256;SDS011;48240;52.962;5.790;2022-12-24T16:15:57;11.60;;;2.22;;
62256;SDS011;48240;52.962;5.790;2022-12-24T16:18:25;11.98;;;2.13;;
62256;SDS011;48240;52.962;5.790;2022-12-24T16:20:53;8.93;;;2.10;;
62256;SDS011;48240;52.962;5.790;2022-12-24T16:23:20;11.52;;;2.15;;
62256;SDS011;48240;52.962;5.790;2022-12-24T16:25:48;10.30;;;2.15;;
62256;SDS011;48240;52.962;5.790;2022-12-24T16:28:14;14.30;;;2.50;;
62256;SDS011;48240;52.962;5.790;2022-12-24T16:30:41;10.75;;;2.10;;
62256;SDS011;48240;52.962;5.790;2022-12-24T16:33:12;10.20;;;2.20;;
62256;SDS011;48240;52.962;5.790;2022-12-24T16:35:39;12.07;;;2.13;;
62256;SDS011;48240;52.962;5.790;2022-12-24T16:38:05;10.65;;;2.20;;
62256;SDS011;48240;52.962;5.790;2022-12-24T16:40:31;11.00;;;2.03;;
62256;SDS011;48240;52.962;5.790;2022-12-24T16:42:57;13.15;;;2.35;;
62256;SDS011;48240;52.962;5.790;2022-12-24T16:45:42;11.40;;;2.25;;
62256;SDS011;48240;52.962;5.790;2022-12-24T16:48:09;9.60;;;2.25;;
62256;SDS011;48240;52.962;5.790;2022-12-24T16:50:41;9.15;;;1.90;;
62256;SDS011;48240;52.962;5.790;2022-12-24T16:53:08;10.90;;;2.00;;
62256;SDS011;48240;52.962;5.790;2022-12-24T16:55:37;6.63;;;1.60;;
62256;SDS011;48240;52.962;5.790;2022-12-24T16:58:03;9.18;;;2.15;;
62256;SDS011;48240;52.962;5.790;2022-12-24T17:00:29;12.32;;;2.10;;
62256;SDS011;48240;52.962;5.790;2022-12-24T17:02:55;9.85;;;2.03;;
62256;SDS011;48240;52.962;5.790;2022-12-24T17:05:21;10.95;;;2.30;;
62256;SDS011;48240;52.962;5.790;2022-12-24T17:07:51;11.00;;;2.15;;
62256;SDS011;48240;52.962;5.790;2022-12-24T17:10:17;11.02;;;2.50;;
62256;SDS011;48240;52.962;5.790;2022-12-24T17:12:43;8.65;;;2.17;;
62256;SDS011;48240;52.962;5.790;2022-12-24T17:15:09;9.98;;;2.35;;
62256;SDS011;48240;52.962;5.790;2022-12-24T17:17:35;10.20;;;2.15;;
62256;SDS011;48240;52.962;5.790;2022-12-24T17:20:02;13.75;;;2.78;;
62256;SDS011;48240;52.962;5.790;2022-12-24T17:22:28;14.88;;;2.33;;
62256;SDS011;48240;52.962;5.790;2022-12-24T17:24:55;12.25;;;2.38;;
62256;SDS011;48240;52.962;5.790;2022-12-24T17:27:21;16.00;;;2.17;;
62256;SDS011;48240;52.962;5.790;2022-12-24T17:29:47;9.25;;;1.77;;
62256;SDS011;48240;52.962;5.790;2022-12-24T17:32:13;10.95;;;2.13;;
62256;SDS011;48240;52.962;5.790;2022-12-24T17:34:40;9.30;;;2.10;;
62256;SDS011;48240;52.962;5.790;2022-12-24T17:37:06;9.43;;;2.50;;
62256;SDS011;48240;52.962;5.790;2022-12-24T17:39:32;13.30;;;2.30;;
62256;SDS011;48240;52.962;5.790;2022-12-24T17:41:58;10.52;;;2.13;;
62256;SDS011;48240;52.962;5.790;2022-12-24T17:44:24;13.50;;;2.40;;
62256;SDS011;48240;52.962;5.790;2022-12-24T17:46:50;17.80;;;2.67;;
62256;SDS011;48240;52.962;5.790;2022-12-24T17:49:16;13.40;;;2.35;;
62256;SDS011;48240;52.962;5.790;2022-12-24T17:51:42;10.57;;;2.40;;
62256;SDS011;48240;52.962;5.790;2022-12-24T17:54:08;7.35;;;2.33;;
62256;SDS011;48240;52.962;5.790;2022-12-24T17:56:35;12.57;;;2.42;;
62256;SDS011;48240;52.962;5.790;2022-12-24T17:59:01;18.33;;;2.30;;
62256;SDS011;48240;52.962;5.790;2022-12-24T18:01:27;17.77;;;2.28;;
62256;SDS011;48240;52.962;5.790;2022-12-24T18:03:59;11.48;;;2.10;;
62256;SDS011;48240;52.962;5.790;2022-12-24T18:06:26;14.18;;;2.10;;
62256;SDS011;48240;52.962;5.790;2022-12-24T18:08:52;14.27;;;2.30;;
62256;SDS011;48240;52.962;5.790;2022-12-24T18:11:20;10.10;;;2.45;;
62256;SDS011;48240;52.962;5.790;2022-12-24T18:13:47;12.93;;;2.47;;
62256;SDS011;48240;52.962;5.790;2022-12-24T18:18:39;13.10;;;2.35;;
62256;SDS011;48240;52.962;5.790;2022-12-24T18:21:05;15.77;;;2.53;;
62256;SDS011;48240;52.962;5.790;2022-12-24T18:23:32;13.95;;;2.67;;
62256;SDS011;48240;52.962;5.790;2022-12-24T18:26:01;15.35;;;2.50;;
62256;SDS011;48240;52.962;5.790;2022-12-24T18:28:27;12.38;;;2.67;;
62256;SDS011;48240;52.962;5.790;2022-12-24T18:31:00;13.48;;;2.70;;
62256;SDS011;48240;52.962;5.790;2022-12-24T18:33:27;14.95;;;2.28;;
62256;SDS011;48240;52.962;5.790;2022-12-24T18:35:53;9.32;;;2.50;;
62256;SDS011;48240;52.962;5.790;2022-12-24T18:38:19;17.17;;;2.75;;
62256;SDS011;48240;52.962;5.790;2022-12-24T18:40:45;12.90;;;2.45;;
62256;SDS011;48240;52.962;5.790;2022-12-24T18:43:12;12.88;;;2.92;;
62256;SDS011;48240;52.962;5.790;2022-12-24T18:45:44;14.88;;;3.00;;
62256;SDS011;48240;52.962;5.790;2022-12-24T18:48:11;12.02;;;3.15;;
62256;SDS011;48240;52.962;5.790;2022-12-24T18:50:37;10.52;;;2.65;;
62256;SDS011;48240;52.962;5.790;2022-12-24T18:53:04;13.75;;;2.85;;
62256;SDS011;48240;52.962;5.790;2022-12-24T18:55:33;11.77;;;2.50;;
62256;SDS011;48240;52.962;5.790;2022-12-24T18:57:59;15.05;;;2.95;;
62256;SDS011;48240;52.962;5.790;2022-12-24T19:00:25;14.80;;;2.83;;
62256;SDS011;48240;52.962;5.790;2022-12-24T19:02:51;10.18;;;2.47;;
62256;SDS011;48240;52.962;5.790;2022-12-24T19:05:17;10.73;;;2.35;;
62256;SDS011;48240;52.962;5.790;2022-12-24T19:07:44;11.18;;;2.45;;
62256;SDS011;48240;52.962;5.790;2022-12-24T19:10:10;11.30;;;2.83;;
62256;SDS011;48240;52.962;5.790;2022-12-24T19:12:36;11.57;;;2.47;;
62256;SDS011;48240;52.962;5.790;2022-12-24T19:15:03;16.27;;;2.70;;
62256;SDS011;48240;52.962;5.790;2022-12-24T19:17:30;11.50;;;2.28;;
62256;SDS011;48240;52.962;5.790;2022-12-24T19:19:56;12.45;;;2.20;;
62256;SDS011;48240;52.962;5.790;2022-12-24T19:22:24;15.38;;;2.55;;
62256;SDS011;48240;52.962;5.790;2022-12-24T19:24:52;14.13;;;2.90;;
62256;SDS011;48240;52.962;5.790;2022-12-24T19:27:18;14.40;;;2.92;;
62256;SDS011;48240;52.962;5.790;2022-12-24T19:29:44;8.68;;;2.05;;
62256;SDS011;48240;52.962;5.790;2022-12-24T19:32:10;13.85;;;2.70;;
62256;SDS011;48240;52.962;5.790;2022-12-24T19:34:36;12.75;;;2.60;;
62256;SDS011;48240;52.962;5.790;2022-12-24T19:37:02;16.13;;;2.80;;
62256;SDS011;48240;52.962;5.790;2022-12-24T19:39:28;9.70;;;2.75;;
62256;SDS011;48240;52.962;5.790;2022-12-24T19:41:57;11.85;;;2.20;;
62256;SDS011;48240;52.962;5.790;2022-12-24T19:44:23;8.23;;;2.63;;
62256;SDS011;48240;52.962;5.790;2022-12-24T19:46:49;9.80;;;2.72;;
62256;SDS011;48240;52.962;5.790;2022-12-24T19:49:15;12.75;;;2.47;;
62256;SDS011;48240;52.962;5.790;2022-12-24T19:51:41;13.45;;;2.83;;
62256;SDS011;48240;52.962;5.790;2022-12-24T19:54:08;13.07;;;2.80;;
62256;SDS011;48240;52.962;5.790;2022-12-24T19:56:36;12.43;;;2.47;;
62256;SDS011;48240;52.962;5.790;2022-12-24T19:59:02;13.27;;;3.28;;
62256;SDS011;48240;52.962;5.790;2022-12-24T20:01:29;8.05;;;2.45;;
62256;SDS011;48240;52.962;5.790;2022-12-24T20:03:56;9.63;;;2.90;;
62256;SDS011;48240;52.962;5.790;2022-12-24T20:06:23;10.48;;;2.72;;
62256;SDS011;48240;52.962;5.790;2022-12-24T20:08:49;10.98;;;2.72;;
62256;SDS011;48240;52.962;5.790;2022-12-24T20:11:17;11.15;;;3.08;;
62256;SDS011;48240;52.962;5.790;2022-12-24T20:13:43;12.35;;;3.17;;
62256;SDS011;48240;52.962;5.790;2022-12-24T20:16:19;11.80;;;2.75;;
62256;SDS011;48240;52.962;5.790;2022-12-24T20:18:52;8.73;;;2.47;;
62256;SDS011;48240;52.962;5.790;2022-12-24T20:21:18;12.18;;;2.95;;
62256;SDS011;48240;52.962;5.790;2022-12-24T20:23:45;13.10;;;2.80;;
62256;SDS011;48240;52.962;5.790;2022-12-24T20:26:12;8.88;;;2.75;;
62256;SDS011;48240;52.962;5.790;2022-12-24T20:28:38;9.43;;;2.80;;
62256;SDS011;48240;52.962;5.790;2022-12-24T20:31:12;7.88;;;2.60;;
62256;SDS011;48240;52.962;5.790;2022-12-24T20:33:54;13.02;;;2.85;;
62256;SDS011;48240;52.962;5.790;2022-12-24T20:36:21;11.30;;;2.90;;
62256;SDS011;48240;52.962;5.790;2022-12-24T20:38:48;15.45;;;3.30;;
62256;SDS011;48240;52.962;5.790;2022-12-24T20:41:15;9.68;;;3.00;;
62256;SDS011;48240;52.962;5.790;2022-12-24T20:43:41;10.57;;;2.85;;
62256;SDS011;48240;52.962;5.790;2022-12-24T20:46:07;12.27;;;3.03;;
62256;SDS011;48240;52.962;5.790;2022-12-24T20:48:34;12.73;;;3.75;;
62256;SDS011;48240;52.962;5.790;2022-12-24T20:51:08;12.38;;;2.85;;